Time;durP1;ratioP1;P1;durP2;ratioP2;P2;SDS_P1;SDS_P2;PMS_P1;PMS_P2;Temp;Humidity;BMP_temperature;BMP_pressure;BME280_temperature;BME280_humidity;BME280_pressure;Samples;Min_cycle;Max_cycle;Signal;HPM_P1;HPM_P2
2022/04/10 00:02:11;;;;;;;8.10;2.08;;;;;;;;;;5088184;28;20036;-65
2022/04/10 00:04:37;;;;;;;6.90;1.88;;;;;;;;;;5080137;28;20047;-65
2022/04/10 00:07:03;;;;;;;7.07;2.15;;;;;;;;;;5083536;28;20040;-65
2022/04/10 00:09:29;;;;;;;6.88;2.20;;;;;;;;;;5065234;28;20511;-65
2022/04/10 00:11:55;;;;;;;11.88;2.53;;;;;;;;;;5101269;22;20035;-63
2022/04/10 00:14:21;;;;;;;15.88;2.38;;;;;;;;;;5112093;28;20488;-64
2022/04/10 00:16:47;;;;;;;7.45;1.85;;;;;;;;;;5114975;28;20415;-63
2022/04/10 00:19:13;;;;;;;8.60;2.05;;;;;;;;;;5101855;28;20040;-64
2022/04/10 00:21:39;;;;;;;8.70;1.90;;;;;;;;;;5097228;28;20047;-64
2022/04/10 00:24:05;;;;;;;8.93;2.08;;;;;;;;;;5100772;28;20411;-64
2022/04/10 00:26:31;;;;;;;8.25;2.08;;;;;;;;;;5097666;28;20409;-64
2022/04/10 00:28:58;;;;;;;8.07;1.90;;;;;;;;;;5095328;28;20036;-64
2022/04/10 00:31:25;;;;;;;10.02;2.25;;;;;;;;;;5097260;28;20040;-64
2022/04/10 00:33:51;;;;;;;7.45;1.88;;;;;;;;;;5101851;28;20040;-64
2022/04/10 00:36:17;;;;;;;10.32;1.80;;;;;;;;;;5101411;28;20512;-64
2022/04/10 00:38:43;;;;;;;7.95;1.98;;;;;;;;;;5101564;28;20067;-64
2022/04/10 00:41:09;;;;;;;8.13;1.75;;;;;;;;;;5081499;28;20086;-64
2022/04/10 00:43:38;;;;;;;4.05;1.67;;;;;;;;;;5083674;28;20062;-63
2022/04/10 00:46:04;;;;;;;10.88;2.10;;;;;;;;;;5082434;28;20125;-63
2022/04/10 00:48:30;;;;;;;9.63;2.00;;;;;;;;;;5092266;28;20148;-63
2022/04/10 00:53:42;;;;;;;7.95;1.77;;;;;;;;;;5091875;28;20044;-63
2022/04/10 00:56:09;;;;;;;8.02;1.95;;;;;;;;;;5091282;28;20248;-63
2022/04/10 00:58:35;;;;;;;14.70;2.55;;;;;;;;;;5098160;28;20032;-63
2022/04/10 01:01:01;;;;;;;9.82;2.50;;;;;;;;;;5099934;28;20120;-64
2022/04/10 01:03:27;;;;;;;8.32;2.10;;;;;;;;;;5098997;28;20062;-64
2022/04/10 01:05:53;;;;;;;12.65;2.00;;;;;;;;;;5081703;28;20036;-63
2022/04/10 01:08:19;;;;;;;7.95;2.22;;;;;;;;;;5106421;28;20042;-63
2022/04/10 01:10:45;;;;;;;6.95;2.22;;;;;;;;;;5092353;28;20173;-63
2022/04/10 01:13:11;;;;;;;10.57;2.55;;;;;;;;;;5096654;28;20040;-63
2022/04/10 01:15:38;;;;;;;11.98;2.13;;;;;;;;;;5104115;28;20053;-63
2022/04/10 01:18:06;;;;;;;8.73;2.00;;;;;;;;;;5099509;28;20111;-63
2022/04/10 01:20:32;;;;;;;10.40;2.40;;;;;;;;;;5097619;28;20039;-63
2022/04/10 01:22:59;;;;;;;12.13;2.60;;;;;;;;;;5108048;28;20035;-64
2022/04/10 01:25:25;;;;;;;10.00;2.50;;;;;;;;;;5084498;28;20039;-63
2022/04/10 01:27:51;;;;;;;12.85;2.78;;;;;;;;;;5099191;28;20106;-63
2022/04/10 01:30:17;;;;;;;12.73;2.90;;;;;;;;;;5095371;28;20486;-63
2022/04/10 01:32:43;;;;;;;12.68;2.78;;;;;;;;;;5097646;28;20071;-62
2022/04/10 01:35:10;;;;;;;7.45;2.28;;;;;;;;;;5106525;28;20112;-63
2022/04/10 01:37:37;;;;;;;14.48;2.63;;;;;;;;;;5105049;28;20048;-63
2022/04/10 01:40:04;;;;;;;13.80;2.45;;;;;;;;;;5098641;28;20066;-63
2022/04/10 01:42:30;;;;;;;10.60;2.53;;;;;;;;;;5103277;28;20036;-63
2022/04/10 01:44:56;;;;;;;9.35;2.33;;;;;;;;;;5104906;28;20043;-64
2022/04/10 01:47:22;;;;;;;10.30;2.20;;;;;;;;;;5103613;28;20547;-64
2022/04/10 01:49:48;;;;;;;10.75;2.53;;;;;;;;;;5099467;28;20171;-63
2022/04/10 01:52:14;;;;;;;11.95;2.90;;;;;;;;;;5091127;28;20051;-63
2022/04/10 01:54:40;;;;;;;11.90;2.47;;;;;;;;;;5101935;28;20053;-63
2022/04/10 01:57:08;;;;;;;12.27;2.67;;;;;;;;;;5101339;28;20503;-63
2022/04/10 01:59:34;;;;;;;11.13;2.80;;;;;;;;;;5098892;28;20036;-63
2022/04/10 02:02:00;;;;;;;17.67;2.90;;;;;;;;;;5100029;28;20032;-63
2022/04/10 02:04:26;;;;;;;13.43;2.50;;;;;;;;;;5106073;28;20401;-63
2022/04/10 02:06:52;;;;;;;10.32;2.58;;;;;;;;;;5103999;28;20032;-63
2022/04/10 02:09:18;;;;;;;9.93;2.55;;;;;;;;;;5098027;28;20059;-63
2022/04/10 02:11:44;;;;;;;8.18;2.60;;;;;;;;;;5099720;28;20107;-63
2022/04/10 02:14:10;;;;;;;10.50;2.40;;;;;;;;;;5108184;28;20043;-63
2022/04/10 02:16:36;;;;;;;10.95;2.92;;;;;;;;;;5100814;28;20085;-63
2022/04/10 02:19:02;;;;;;;11.10;3.17;;;;;;;;;;5101363;28;20031;-63
2022/04/10 02:21:28;;;;;;;10.77;2.85;;;;;;;;;;5097766;28;20050;-63
2022/04/10 02:23:55;;;;;;;9.02;2.85;;;;;;;;;;5095301;28;20387;-63
2022/04/10 02:26:20;;;;;;;10.70;2.83;;;;;;;;;;5088291;28;20089;-63
2022/04/10 02:28:46;;;;;;;10.40;2.97;;;;;;;;;;5096798;28;20394;-63
2022/04/10 02:31:12;;;;;;;7.68;2.78;;;;;;;;;;5096323;28;20114;-63
2022/04/10 02:33:38;;;;;;;10.18;2.78;;;;;;;;;;5097087;28;20097;-63
2022/04/10 02:36:05;;;;;;;14.75;2.88;;;;;;;;;;5097334;28;20123;-64
2022/04/10 02:38:31;;;;;;;11.10;2.80;;;;;;;;;;5100081;28;20481;-63
2022/04/10 02:40:57;;;;;;;12.90;2.47;;;;;;;;;;5103729;28;20035;-63
2022/04/10 02:43:23;;;;;;;9.50;2.47;;;;;;;;;;5100565;28;20055;-63
2022/04/10 02:45:49;;;;;;;9.73;2.50;;;;;;;;;;5099680;28;20122;-63
2022/04/10 02:48:15;;;;;;;12.90;2.70;;;;;;;;;;5103570;28;20051;-63
2022/04/10 02:50:41;;;;;;;11.98;2.85;;;;;;;;;;5099550;28;20521;-63
2022/04/10 02:53:07;;;;;;;11.93;3.03;;;;;;;;;;5100737;28;20501;-63
2022/04/10 02:55:33;;;;;;;8.52;2.20;;;;;;;;;;5103202;28;20036;-63
2022/04/10 02:57:59;;;;;;;12.85;3.00;;;;;;;;;;5105872;28;20040;-63
2022/04/10 03:00:25;;;;;;;12.80;2.70;;;;;;;;;;5096208;28;20033;-63
2022/04/10 03:02:52;;;;;;;11.18;2.72;;;;;;;;;;5101744;28;20032;-63
2022/04/10 03:05:18;;;;;;;11.85;2.60;;;;;;;;;;5104971;28;20040;-62
2022/04/10 03:07:44;;;;;;;10.77;2.80;;;;;;;;;;5104388;28;20032;-63
2022/04/10 03:10:10;;;;;;;9.32;2.55;;;;;;;;;;5091507;28;20046;-63
2022/04/10 03:12:36;;;;;;;14.48;2.72;;;;;;;;;;5095496;28;20212;-62
2022/04/10 03:15:02;;;;;;;7.32;2.38;;;;;;;;;;5105029;28;20458;-63
2022/04/10 03:17:28;;;;;;;9.30;2.30;;;;;;;;;;5101316;28;20264;-64
2022/04/10 03:19:54;;;;;;;13.23;2.75;;;;;;;;;;5097377;28;20386;-63
2022/04/10 03:22:20;;;;;;;13.73;2.63;;;;;;;;;;5090772;28;20047;-63
2022/04/10 03:24:46;;;;;;;12.07;2.90;;;;;;;;;;5097961;28;20035;-63
2022/04/10 03:27:12;;;;;;;6.65;2.80;;;;;;;;;;5103287;28;20031;-63
2022/04/10 03:29:38;;;;;;;10.05;2.70;;;;;;;;;;5097645;28;20039;-63
2022/04/10 03:32:04;;;;;;;13.82;2.67;;;;;;;;;;5096986;28;20066;-63
2022/04/10 03:34:30;;;;;;;11.73;2.65;;;;;;;;;;5094307;28;20061;-64
2022/04/10 03:36:56;;;;;;;11.30;2.67;;;;;;;;;;5106032;28;20036;-63
2022/04/10 03:39:22;;;;;;;11.77;2.75;;;;;;;;;;5096019;28;20458;-63
2022/04/10 03:41:48;;;;;;;12.68;2.38;;;;;;;;;;5104024;28;20036;-63
2022/04/10 03:44:14;;;;;;;10.63;2.67;;;;;;;;;;5096502;28;20056;-63
2022/04/10 03:46:40;;;;;;;12.10;2.50;;;;;;;;;;5098150;28;20413;-64
2022/04/10 03:49:08;;;;;;;11.98;2.67;;;;;;;;;;5096897;28;20036;-63
2022/04/10 03:51:34;;;;;;;14.77;2.33;;;;;;;;;;5100440;28;20044;-63
2022/04/10 03:54:00;;;;;;;12.80;3.15;;;;;;;;;;5097391;28;20089;-63
2022/04/10 03:56:26;;;;;;;7.05;1.92;;;;;;;;;;5120584;27;20039;-63
2022/04/10 03:58:52;;;;;;;14.25;2.83;;;;;;;;;;5095324;28;20047;-63
2022/04/10 04:01:18;;;;;;;11.73;2.67;;;;;;;;;;5092881;28;20115;-63
2022/04/10 04:03:43;;;;;;;9.98;3.03;;;;;;;;;;5098653;28;20042;-63
2022/04/10 04:06:10;;;;;;;13.15;2.60;;;;;;;;;;5095662;28;20043;-63
2022/04/10 04:08:36;;;;;;;9.40;2.65;;;;;;;;;;5086247;28;20114;-63
2022/04/10 04:11:02;;;;;;;8.88;2.55;;;;;;;;;;5092847;28;20503;-63
2022/04/10 04:13:28;;;;;;;9.55;2.67;;;;;;;;;;5098326;28;20048;-63
2022/04/10 04:15:54;;;;;;;6.78;1.92;;;;;;;;;;5095023;28;20040;-62
2022/04/10 04:18:20;;;;;;;10.80;1.80;;;;;;;;;;5098489;28;20039;-63
2022/04/10 04:20:46;;;;;;;7.30;1.70;;;;;;;;;;5100846;28;20043;-63
2022/04/10 04:23:11;;;;;;;6.07;1.42;;;;;;;;;;5096014;28;20040;-63
2022/04/10 04:25:38;;;;;;;4.28;1.30;;;;;;;;;;5094929;28;20036;-63
2022/04/10 04:28:04;;;;;;;4.53;1.40;;;;;;;;;;5096293;28;20033;-64
2022/04/10 04:30:30;;;;;;;3.35;1.20;;;;;;;;;;5096681;28;20028;-63
2022/04/10 04:32:56;;;;;;;2.30;1.00;;;;;;;;;;5093798;28;20036;-64
2022/04/10 04:35:23;;;;;;;5.72;1.33;;;;;;;;;;5106392;28;20046;-63
2022/04/10 04:37:49;;;;;;;5.80;1.40;;;;;;;;;;5100177;28;20460;-64
2022/04/10 04:40:15;;;;;;;5.70;1.73;;;;;;;;;;5095839;28;20036;-64
2022/04/10 04:42:41;;;;;;;7.82;2.15;;;;;;;;;;5103088;28;20094;-65
2022/04/10 04:45:08;;;;;;;8.30;1.75;;;;;;;;;;5098447;28;20043;-64
2022/04/10 04:47:34;;;;;;;11.68;1.70;;;;;;;;;;5099252;28;20480;-65
2022/04/10 04:50:00;;;;;;;6.65;1.63;;;;;;;;;;5095434;28;20039;-64
2022/04/10 04:52:26;;;;;;;5.60;1.45;;;;;;;;;;5098548;28;20090;-64
2022/04/10 04:54:52;;;;;;;8.40;1.80;;;;;;;;;;5095473;28;20123;-63
2022/04/10 04:57:18;;;;;;;5.85;1.63;;;;;;;;;;5100664;28;20119;-63
2022/04/10 04:59:44;;;;;;;4.65;1.58;;;;;;;;;;5094388;28;20089;-63
2022/04/10 05:02:11;;;;;;;8.40;1.90;;;;;;;;;;5100513;28;20082;-63
2022/04/10 05:04:37;;;;;;;5.75;1.90;;;;;;;;;;5098406;28;20451;-63
2022/04/10 05:07:03;;;;;;;6.97;1.85;;;;;;;;;;5098745;28;20084;-64
2022/04/10 05:09:29;;;;;;;6.47;1.88;;;;;;;;;;5098301;28;20036;-63
2022/04/10 05:11:55;;;;;;;8.02;1.75;;;;;;;;;;5098452;28;20455;-64
2022/04/10 05:14:21;;;;;;;7.78;2.05;;;;;;;;;;5094620;28;20044;-63
2022/04/10 05:16:47;;;;;;;8.38;1.90;;;;;;;;;;5094864;28;20058;-63
2022/04/10 05:19:14;;;;;;;6.47;2.33;;;;;;;;;;5105060;28;20051;-63
2022/04/10 05:21:40;;;;;;;6.72;2.00;;;;;;;;;;5097658;28;20036;-63
2022/04/10 05:24:06;;;;;;;6.50;2.08;;;;;;;;;;5095484;28;20063;-63
2022/04/10 05:26:32;;;;;;;8.95;2.45;;;;;;;;;;5103767;28;20413;-63
2022/04/10 05:28:58;;;;;;;6.45;2.15;;;;;;;;;;5094414;28;20044;-64
2022/04/10 05:31:24;;;;;;;10.45;2.33;;;;;;;;;;5104914;28;20409;-64
2022/04/10 05:33:50;;;;;;;8.10;2.67;;;;;;;;;;5103550;28;20078;-63
2022/04/10 05:36:17;;;;;;;8.05;2.17;;;;;;;;;;5081551;28;20478;-63
2022/04/10 05:38:45;;;;;;;7.70;2.33;;;;;;;;;;5085103;28;20096;-63
2022/04/10 05:41:12;;;;;;;7.53;2.22;;;;;;;;;;5101716;28;20055;-63
2022/04/10 05:43:38;;;;;;;8.25;2.30;;;;;;;;;;5101502;28;20040;-64
2022/04/10 05:46:04;;;;;;;6.53;1.90;;;;;;;;;;5101312;28;20481;-64
2022/04/10 05:48:31;;;;;;;9.57;1.88;;;;;;;;;;5106183;28;20490;-64
2022/04/10 05:50:57;;;;;;;12.15;2.47;;;;;;;;;;5105402;28;20038;-64
2022/04/10 05:53:26;;;;;;;7.97;2.28;;;;;;;;;;5097407;28;20044;-64
2022/04/10 05:55:53;;;;;;;8.20;2.20;;;;;;;;;;5097148;28;20047;-64
2022/04/10 05:58:18;;;;;;;3.42;1.48;;;;;;;;;;5104021;28;20036;-64
2022/04/10 06:00:44;;;;;;;7.47;2.13;;;;;;;;;;5094875;28;20097;-64
2022/04/10 06:03:10;;;;;;;8.85;2.00;;;;;;;;;;5094546;28;20032;-64
2022/04/10 06:05:36;;;;;;;7.30;1.70;;;;;;;;;;5091561;28;20041;-64
2022/04/10 06:08:02;;;;;;;8.82;1.60;;;;;;;;;;5095837;28;20394;-64
2022/04/10 06:10:28;;;;;;;8.07;1.63;;;;;;;;;;5097582;28;20106;-64
2022/04/10 06:12:54;;;;;;;4.03;1.33;;;;;;;;;;5113569;22;20071;-65
2022/04/10 06:15:21;;;;;;;7.13;1.67;;;;;;;;;;5100487;28;20081;-66
2022/04/10 06:17:48;;;;;;;5.90;1.38;;;;;;;;;;5090046;28;20397;-66
2022/04/10 06:20:14;;;;;;;3.08;1.20;;;;;;;;;;5097436;28;20044;-66
2022/04/10 06:22:40;;;;;;;2.28;1.00;;;;;;;;;;5096220;28;20054;-66
2022/04/10 06:25:06;;;;;;;5.38;1.45;;;;;;;;;;5092504;28;20047;-66
2022/04/10 06:27:32;;;;;;;3.35;1.75;;;;;;;;;;5101742;28;20043;-66
2022/04/10 06:29:58;;;;;;;3.20;0.93;;;;;;;;;;5087725;28;20036;-66
2022/04/10 06:32:24;;;;;;;4.15;1.25;;;;;;;;;;5085735;28;20063;-66
2022/04/10 06:34:49;;;;;;;3.55;1.45;;;;;;;;;;5097387;28;20069;-66
2022/04/10 06:37:15;;;;;;;4.00;1.15;;;;;;;;;;5098094;28;20122;-67
2022/04/10 06:39:41;;;;;;;4.75;1.60;;;;;;;;;;5099434;28;20031;-66
2022/04/10 06:42:08;;;;;;;3.30;1.52;;;;;;;;;;5081984;28;20062;-66
2022/04/10 06:44:34;;;;;;;3.88;1.23;;;;;;;;;;5077583;28;20071;-67
2022/04/10 06:47:00;;;;;;;5.07;1.30;;;;;;;;;;5092687;28;20101;-66
2022/04/10 06:49:26;;;;;;;4.97;1.35;;;;;;;;;;5101141;28;20512;-66
2022/04/10 06:51:52;;;;;;;4.65;1.20;;;;;;;;;;5087538;28;20037;-66
2022/04/10 06:54:18;;;;;;;5.30;1.45;;;;;;;;;;5095087;28;20050;-66
2022/04/10 06:56:44;;;;;;;4.97;1.92;;;;;;;;;;5102534;28;20043;-66
2022/04/10 06:59:10;;;;;;;4.40;1.20;;;;;;;;;;5090748;28;20036;-65
2022/04/10 07:01:36;;;;;;;5.80;1.30;;;;;;;;;;5099842;28;20051;-66
2022/04/10 07:04:04;;;;;;;7.28;1.67;;;;;;;;;;5091559;28;20055;-65
2022/04/10 07:06:30;;;;;;;7.15;1.50;;;;;;;;;;5094014;28;20032;-66
2022/04/10 07:08:57;;;;;;;7.40;1.88;;;;;;;;;;5094847;28;20047;-65
2022/04/10 07:11:23;;;;;;;7.72;2.05;;;;;;;;;;5098834;28;20055;-66
2022/04/10 07:13:49;;;;;;;5.18;1.40;;;;;;;;;;5091841;28;20043;-65
2022/04/10 07:16:15;;;;;;;5.47;1.30;;;;;;;;;;5093625;28;20061;-66
2022/04/10 07:18:41;;;;;;;4.18;1.48;;;;;;;;;;5083025;28;20063;-66
2022/04/10 07:21:07;;;;;;;4.47;1.10;;;;;;;;;;5096147;28;20069;-66
2022/04/10 07:23:42;;;;;;;4.72;1.30;;;;;;;;;;5078027;28;20458;-66
2022/04/10 07:26:08;;;;;;;10.55;1.90;;;;;;;;;;5094718;28;20043;-65
2022/04/10 07:28:34;;;;;;;4.47;1.50;;;;;;;;;;5078550;28;20043;-65
2022/04/10 07:31:00;;;;;;;6.32;1.70;;;;;;;;;;5099273;28;20493;-65
2022/04/10 07:33:26;;;;;;;3.33;1.40;;;;;;;;;;5095380;28;20024;-66
2022/04/10 07:35:52;;;;;;;6.53;1.38;;;;;;;;;;5097482;28;20036;-64
2022/04/10 07:38:18;;;;;;;6.00;1.42;;;;;;;;;;5093400;28;20053;-65
2022/04/10 07:40:44;;;;;;;9.30;1.55;;;;;;;;;;5094652;28;20110;-65
2022/04/10 07:43:10;;;;;;;4.25;1.60;;;;;;;;;;5095988;28;20044;-66
2022/04/10 07:48:21;;;;;;;4.43;1.30;;;;;;;;;;5095758;28;20043;-66
2022/04/10 07:50:47;;;;;;;10.20;1.63;;;;;;;;;;5093634;28;20036;-65
2022/04/10 07:53:13;;;;;;;4.68;1.60;;;;;;;;;;5090483;28;20040;-65
2022/04/10 07:55:39;;;;;;;6.72;1.55;;;;;;;;;;5091670;28;20032;-65
2022/04/10 07:58:05;;;;;;;6.57;1.75;;;;;;;;;;5078108;28;20039;-65
2022/04/10 08:00:34;;;;;;;6.20;1.42;;;;;;;;;;5093208;28;20069;-66
2022/04/10 08:03:00;;;;;;;10.40;2.58;;;;;;;;;;5097279;28;20047;-66
2022/04/10 08:05:26;;;;;;;6.93;1.65;;;;;;;;;;5084038;28;20051;-66
2022/04/10 08:07:52;;;;;;;5.97;1.48;;;;;;;;;;5083432;28;20516;-66
2022/04/10 08:10:18;;;;;;;6.78;1.73;;;;;;;;;;5089084;28;20068;-66
2022/04/10 08:12:44;;;;;;;7.18;1.50;;;;;;;;;;5091557;28;20107;-66
2022/04/10 08:15:11;;;;;;;5.55;2.00;;;;;;;;;;5094048;28;20048;-66
2022/04/10 08:17:37;;;;;;;12.27;1.95;;;;;;;;;;5097404;28;20127;-66
2022/04/10 08:20:03;;;;;;;7.85;1.80;;;;;;;;;;5086957;28;20093;-65
2022/04/10 08:22:30;;;;;;;2.97;1.30;;;;;;;;;;5090275;28;20093;-66
2022/04/10 08:24:56;;;;;;;7.90;2.17;;;;;;;;;;5088434;28;20040;-67
2022/04/10 08:27:22;;;;;;;6.68;1.88;;;;;;;;;;5095270;28;20042;-66
2022/04/10 08:29:48;;;;;;;7.63;1.70;;;;;;;;;;5098587;28;20048;-66
2022/04/10 08:32:14;;;;;;;8.82;1.80;;;;;;;;;;5096431;28;20036;-66
2022/04/10 08:34:40;;;;;;;8.05;1.80;;;;;;;;;;5099164;28;20075;-65
2022/04/10 08:37:06;;;;;;;6.97;1.60;;;;;;;;;;5099505;28;20036;-65
2022/04/10 08:39:32;;;;;;;12.15;2.28;;;;;;;;;;5092570;28;20512;-65
2022/04/10 08:42:02;;;;;;;7.07;1.75;;;;;;;;;;5090289;28;20074;-66
2022/04/10 08:44:29;;;;;;;5.90;1.70;;;;;;;;;;5102030;28;20050;-66
2022/04/10 08:46:55;;;;;;;5.55;1.58;;;;;;;;;;5098792;28;20043;-65
2022/04/10 08:49:24;;;;;;;7.78;1.73;;;;;;;;;;5085626;28;20039;-64
2022/04/10 08:51:51;;;;;;;5.18;1.65;;;;;;;;;;5083678;28;20170;-64
2022/04/10 08:54:19;;;;;;;6.40;1.80;;;;;;;;;;5085439;28;20044;-64
2022/04/10 08:56:45;;;;;;;5.70;1.70;;;;;;;;;;5096711;28;20086;-65
2022/04/10 08:59:11;;;;;;;6.45;1.45;;;;;;;;;;5075190;28;20091;-65
2022/04/10 09:01:37;;;;;;;11.70;1.95;;;;;;;;;;5087853;28;20051;-65
2022/04/10 09:04:03;;;;;;;9.25;1.77;;;;;;;;;;5092787;28;20484;-65
2022/04/10 09:06:29;;;;;;;6.97;2.13;;;;;;;;;;5096454;28;20036;-65
2022/04/10 09:09:11;;;;;;;11.27;2.00;;;;;;;;;;5092830;28;20178;-65
2022/04/10 09:11:39;;;;;;;11.93;1.63;;;;;;;;;;5102876;28;20397;-66
2022/04/10 09:14:06;;;;;;;5.88;1.58;;;;;;;;;;5092413;28;20078;-64
2022/04/10 09:16:32;;;;;;;8.52;1.88;;;;;;;;;;5090185;28;20524;-63
2022/04/10 09:19:08;;;;;;;6.13;1.80;;;;;;;;;;5082212;28;20098;-63
2022/04/10 09:21:39;;;;;;;5.35;1.40;;;;;;;;;;5067611;28;20048;-63
2022/04/10 09:24:05;;;;;;;;;;;;;;;;;;5086435;28;20036;-63
2022/04/10 09:26:47;;;;;;;4.45;1.67;;;;;;;;;;5083112;28;19916;-64
2022/04/10 09:29:14;;;;;;;6.68;1.50;;;;;;;;;;5087902;28;20043;-65
2022/04/10 09:31:40;;;;;;;7.28;1.63;;;;;;;;;;5088242;28;20052;-66
2022/04/10 09:34:07;;;;;;;8.25;2.00;;;;;;;;;;5079481;28;20544;-65
2022/04/10 09:36:33;;;;;;;6.75;2.28;;;;;;;;;;5095589;28;20043;-65
2022/04/10 09:38:59;;;;;;;8.35;1.73;;;;;;;;;;5070052;28;20448;-65
2022/04/10 09:41:25;;;;;;;9.35;2.58;;;;;;;;;;5083877;28;20040;-65
2022/04/10 09:43:51;;;;;;;8.70;2.17;;;;;;;;;;5082107;28;20049;-65
2022/04/10 09:46:17;;;;;;;11.18;2.25;;;;;;;;;;5084657;28;20402;-65
2022/04/10 09:48:44;;;;;;;12.13;2.15;;;;;;;;;;5084962;28;20093;-65
2022/04/10 09:51:11;;;;;;;9.35;2.30;;;;;;;;;;5086849;28;20046;-65
2022/04/10 09:53:38;;;;;;;8.00;1.75;;;;;;;;;;5083701;28;20064;-66
2022/04/10 09:56:05;;;;;;;8.75;1.33;;;;;;;;;;5082171;28;20505;-66
2022/04/10 09:58:31;;;;;;;7.13;1.63;;;;;;;;;;5081047;28;20036;-65
2022/04/10 10:00:58;;;;;;;11.80;1.80;;;;;;;;;;5087987;28;20486;-66
2022/04/10 10:03:25;;;;;;;6.00;1.80;;;;;;;;;;5093986;28;20039;-66
2022/04/10 10:05:52;;;;;;;8.02;1.60;;;;;;;;;;5092259;28;20036;-65
2022/04/10 10:08:18;;;;;;;6.18;1.58;;;;;;;;;;5091793;28;20036;-65
2022/04/10 10:10:45;;;;;;;7.40;1.70;;;;;;;;;;5091428;28;20044;-66
2022/04/10 10:13:14;;;;;;;7.40;1.80;;;;;;;;;;5082045;28;20047;-66
2022/04/10 10:15:41;;;;;;;8.18;1.80;;;;;;;;;;5078411;28;20051;-66
2022/04/10 10:18:09;;;;;;;6.63;1.38;;;;;;;;;;5084498;28;20035;-66
2022/04/10 10:20:36;;;;;;;7.22;1.48;;;;;;;;;;5085143;28;20032;-66
2022/04/10 10:23:03;;;;;;;12.10;1.60;;;;;;;;;;5079312;28;20097;-66
2022/04/10 10:25:48;;;;;;;4.93;1.55;;;;;;;;;;5084129;28;20198;-66
2022/04/10 10:28:20;;;;;;;7.65;1.55;;;;;;;;;;5080625;28;20078;-65
2022/04/10 10:30:58;;;;;;;8.48;1.90;;;;;;;;;;5076892;28;20451;-65
2022/04/10 10:33:25;;;;;;;6.40;1.55;;;;;;;;;;5084354;28;20040;-66
2022/04/10 10:36:01;;;;;;;6.80;1.60;;;;;;;;;;5084469;28;20040;-65
2022/04/10 10:38:31;;;;;;;6.15;1.90;;;;;;;;;;5073383;28;20048;-65
2022/04/10 10:41:09;;;;;;;5.90;1.70;;;;;;;;;;5088445;28;20032;-65
2022/04/10 10:43:35;;;;;;;7.10;1.35;;;;;;;;;;5073076;28;20560;-65
2022/04/10 10:46:01;;;;;;;6.22;1.40;;;;;;;;;;5079196;28;20120;-65
2022/04/10 10:48:35;;;;;;;7.43;1.70;;;;;;;;;;5075530;28;20389;-65
2022/04/10 10:51:10;;;;;;;4.88;1.08;;;;;;;;;;5083942;28;20040;-66
2022/04/10 10:53:46;;;;;;;9.05;1.67;;;;;;;;;;5073148;28;20040;-65
2022/04/10 10:56:12;;;;;;;6.55;1.40;;;;;;;;;;5079656;28;20081;-66
2022/04/10 10:58:40;;;;;;;7.65;1.38;;;;;;;;;;5087211;28;20042;-66
2022/04/10 11:01:07;;;;;;;5.25;1.55;;;;;;;;;;5083056;28;20048;-66
2022/04/10 11:03:33;;;;;;;7.63;1.48;;;;;;;;;;5088809;28;20440;-66
2022/04/10 11:06:06;;;;;;;7.13;1.55;;;;;;;;;;5079805;28;20051;-66
2022/04/10 11:08:39;;;;;;;5.60;1.80;;;;;;;;;;5062494;28;20123;-66
2022/04/10 11:11:05;;;;;;;7.55;1.58;;;;;;;;;;5082355;28;20039;-66
2022/04/10 11:13:46;;;;;;;4.82;1.45;;;;;;;;;;5063364;28;20031;-66
2022/04/10 11:16:13;;;;;;;7.65;1.30;;;;;;;;;;5070193;28;20047;-66
2022/04/10 11:18:43;;;;;;;8.57;1.98;;;;;;;;;;5072910;28;20093;-66
2022/04/10 11:21:10;;;;;;;5.32;1.70;;;;;;;;;;5071865;28;20115;-66
2022/04/10 11:23:47;;;;;;;6.43;1.70;;;;;;;;;;5087060;28;20091;-65
2022/04/10 11:26:13;;;;;;;5.72;1.52;;;;;;;;;;5087892;28;20040;-65
2022/04/10 11:28:55;;;;;;;5.30;1.40;;;;;;;;;;5082507;28;20055;-65
2022/04/10 11:31:40;;;;;;;7.07;1.80;;;;;;;;;;5073915;28;20060;-65
2022/04/10 11:34:28;;;;;;;6.50;1.40;;;;;;;;;;5068378;28;20051;-66
2022/04/10 11:36:59;;;;;;;4.03;1.25;;;;;;;;;;5087570;28;20036;-65
2022/04/10 11:39:29;;;;;;;7.70;1.30;;;;;;;;;;5090540;28;20066;-65
2022/04/10 11:42:02;;;;;;;4.60;1.30;;;;;;;;;;5087372;28;20298;-66
2022/04/10 11:44:29;;;;;;;4.82;1.42;;;;;;;;;;5091474;28;20085;-66
2022/04/10 11:46:55;;;;;;;5.75;1.30;;;;;;;;;;5087379;28;20032;-66
2022/04/10 11:49:21;;;;;;;4.20;1.17;;;;;;;;;;5071658;28;20051;-66
2022/04/10 11:51:54;;;;;;;4.88;1.08;;;;;;;;;;5091810;28;20127;-66
2022/04/10 11:54:24;;;;;;;10.90;1.58;;;;;;;;;;5061466;28;20052;-65
2022/04/10 11:56:51;;;;;;;5.70;1.45;;;;;;;;;;5075060;28;20041;-65
2022/04/10 11:59:17;;;;;;;5.75;1.25;;;;;;;;;;5067977;28;20482;-64
2022/04/10 12:01:43;;;;;;;5.47;1.10;;;;;;;;;;5088550;28;20119;-65
2022/04/10 12:04:09;;;;;;;5.20;1.10;;;;;;;;;;5076642;28;20041;-64
2022/04/10 12:06:35;;;;;;;5.43;1.35;;;;;;;;;;5083710;28;20051;-65
2022/04/10 12:09:01;;;;;;;6.57;1.63;;;;;;;;;;5080756;28;20032;-65
2022/04/10 12:11:36;;;;;;;5.30;1.00;;;;;;;;;;5079947;28;20068;-65
2022/04/10 12:14:14;;;;;;;3.38;1.20;;;;;;;;;;5077666;28;20044;-65
2022/04/10 12:16:41;;;;;;;4.85;1.30;;;;;;;;;;5080493;28;20069;-65
2022/04/10 12:19:07;;;;;;;7.03;1.58;;;;;;;;;;5074954;28;20044;-65
2022/04/10 12:21:33;;;;;;;6.40;1.55;;;;;;;;;;5085857;28;20118;-65
2022/04/10 12:23:59;;;;;;;9.18;1.58;;;;;;;;;;5133326;22;20043;-65
2022/04/10 12:26:26;;;;;;;5.40;1.33;;;;;;;;;;5120780;28;20031;-64
2022/04/10 12:28:52;;;;;;;5.60;1.33;;;;;;;;;;5115185;28;20485;-65
2022/04/10 12:31:19;;;;;;;5.50;1.20;;;;;;;;;;5121264;28;20081;-64
2022/04/10 12:33:46;;;;;;;3.88;0.93;;;;;;;;;;5110344;28;20123;-64
2022/04/10 12:36:19;;;;;;;6.22;1.27;;;;;;;;;;5099488;28;20449;-64
2022/04/10 12:38:45;;;;;;;7.57;1.20;;;;;;;;;;5106341;28;20042;-64
2022/04/10 12:41:11;;;;;;;4.63;1.10;;;;;;;;;;5096984;28;20031;-64
2022/04/10 12:43:37;;;;;;;6.18;1.75;;;;;;;;;;5095640;28;20032;-64
2022/04/10 12:46:10;;;;;;;4.72;1.20;;;;;;;;;;5095470;28;20630;-64
2022/04/10 12:48:37;;;;;;;3.90;1.38;;;;;;;;;;5100807;28;20047;-64
2022/04/10 12:51:10;;;;;;;5.22;1.10;;;;;;;;;;5104027;28;20028;-64
2022/04/10 12:53:36;;;;;;;6.13;1.50;;;;;;;;;;5094856;28;20043;-64
2022/04/10 12:56:03;;;;;;;8.07;1.50;;;;;;;;;;5096821;28;20069;-64
2022/04/10 12:58:29;;;;;;;5.15;1.20;;;;;;;;;;5094793;28;20039;-64
2022/04/10 13:00:56;;;;;;;4.97;1.20;;;;;;;;;;5112769;28;20031;-64
2022/04/10 13:03:29;;;;;;;4.85;1.30;;;;;;;;;;5098183;28;20036;-64
2022/04/10 13:05:59;;;;;;;5.65;1.10;;;;;;;;;;5115657;28;20039;-64
2022/04/10 13:08:26;;;;;;;4.32;1.10;;;;;;;;;;5115208;28;20110;-64
2022/04/10 13:10:53;;;;;;;5.50;1.30;;;;;;;;;;5096644;28;20036;-63
2022/04/10 13:13:19;;;;;;;4.80;1.20;;;;;;;;;;5094767;28;20401;-63
2022/04/10 13:15:45;;;;;;;5.10;0.98;;;;;;;;;;5096267;28;20035;-63
2022/04/10 13:18:11;;;;;;;2.83;0.70;;;;;;;;;;5105946;28;20040;-63
2022/04/10 13:20:38;;;;;;;3.65;0.77;;;;;;;;;;5101403;28;20039;-64
2022/04/10 13:23:04;;;;;;;3.60;1.00;;;;;;;;;;5098594;28;20069;-64
2022/04/10 13:25:32;;;;;;;4.25;1.10;;;;;;;;;;5115547;28;20036;-64
2022/04/10 13:27:58;;;;;;;4.43;0.88;;;;;;;;;;5114297;28;20114;-64
2022/04/10 13:30:24;;;;;;;8.57;1.50;;;;;;;;;;5114305;28;20100;-64
2022/04/10 13:32:50;;;;;;;3.58;1.30;;;;;;;;;;5115042;28;20485;-64
2022/04/10 13:35:16;;;;;;;4.00;1.00;;;;;;;;;;5114650;28;20466;-64
2022/04/10 13:37:43;;;;;;;2.35;0.90;;;;;;;;;;5105573;28;20121;-64
2022/04/10 13:40:10;;;;;;;4.90;1.25;;;;;;;;;;5100477;28;20043;-64
2022/04/10 13:42:36;;;;;;;6.30;1.27;;;;;;;;;;5102973;28;20036;-64
2022/04/10 13:45:02;;;;;;;7.63;1.25;;;;;;;;;;5094071;28;20040;-64
2022/04/10 13:47:29;;;;;;;8.60;1.33;;;;;;;;;;5094026;28;20036;-64
2022/04/10 13:49:55;;;;;;;3.42;1.13;;;;;;;;;;5104573;28;20405;-64
2022/04/10 13:52:21;;;;;;;3.65;1.13;;;;;;;;;;5113399;28;20081;-64
2022/04/10 13:54:47;;;;;;;6.80;1.35;;;;;;;;;;5105195;28;20042;-64
2022/04/10 13:57:13;;;;;;;7.40;1.15;;;;;;;;;;5096222;28;20489;-64
2022/04/10 13:59:39;;;;;;;5.90;1.00;;;;;;;;;;5093197;28;20035;-64
2022/04/10 14:02:05;;;;;;;4.03;1.40;;;;;;;;;;5094126;28;20093;-64
2022/04/10 14:04:31;;;;;;;5.28;1.15;;;;;;;;;;5110712;28;20043;-64
2022/04/10 14:06:57;;;;;;;4.70;1.20;;;;;;;;;;5114801;28;20481;-64
2022/04/10 14:09:23;;;;;;;6.35;1.10;;;;;;;;;;5104337;28;20119;-64
2022/04/10 14:11:50;;;;;;;4.57;1.08;;;;;;;;;;5099496;28;20101;-64
2022/04/10 14:14:17;;;;;;;5.25;1.23;;;;;;;;;;5092283;28;20054;-64
2022/04/10 14:16:42;;;;;;;7.60;1.27;;;;;;;;;;5094603;28;20493;-64
2022/04/10 14:19:09;;;;;;;5.45;1.20;;;;;;;;;;5093577;28;20118;-64
2022/04/10 14:21:36;;;;;;;6.85;1.30;;;;;;;;;;5094896;28;20036;-64
2022/04/10 14:24:02;;;;;;;5.40;1.25;;;;;;;;;;5093357;28;20048;-63
2022/04/10 14:26:28;;;;;;;4.05;1.40;;;;;;;;;;5093819;28;20134;-64
2022/04/10 14:28:54;;;;;;;5.60;1.55;;;;;;;;;;5093058;28;20523;-64
2022/04/10 14:31:20;;;;;;;4.18;0.85;;;;;;;;;;5110936;28;20036;-64
2022/04/10 14:33:46;;;;;;;7.35;1.23;;;;;;;;;;5113388;28;20047;-64
2022/04/10 14:36:12;;;;;;;4.97;1.30;;;;;;;;;;5095683;28;20428;-64
2022/04/10 14:38:38;;;;;;;4.93;1.20;;;;;;;;;;5100516;28;20447;-64
2022/04/10 14:41:07;;;;;;;3.42;1.27;;;;;;;;;;5102112;28;20042;-64
2022/04/10 14:43:33;;;;;;;5.47;1.13;;;;;;;;;;5092446;28;20506;-64
2022/04/10 14:45:59;;;;;;;4.43;1.10;;;;;;;;;;5107202;28;20050;-64